Subpeak Weather

  • Time Avg. Air Temp Dew Point Avg. Rel Humidity Avg. 2 Min Wind Speed Max Gust Velocity MGV Time MGV Direction Avg. Spot Wind Velocity
    2017-04-28 10:55:00-3° C-4° C95%0 km/h0 km/h10:51:00N0 km/h
    09:55:00-5° C-6° C93%0 km/h0 km/h09:51:00N0 km/h
    08:55:00-4° C-4° C95%0 km/h0 km/h08:51:00N0 km/h
    07:55:00-4° C-5° C94%0 km/h0 km/h07:51:00N0 km/h
    06:55:00-5° C-6° C94%0 km/h0 km/h06:51:00N0 km/h
    05:55:00-5° C-6° C94%0 km/h2 km/h05:51:00N0 km/h
    04:55:00-5° C-6° C94%4 km/h7 km/h04:52:10NW4 km/h
    03:55:00-5° C-6° C94%5 km/h11 km/h03:51:00NW8 km/h
    02:55:00-5° C-6° C94%12 km/h14 km/h02:54:10NW9 km/h
    01:55:00-5° C-6° C94%10 km/h14 km/h01:53:10NW11 km/h
    00:55:00-5° C-5° C95%13 km/h18 km/h00:55:10NW13 km/h
    23:55:00-5° C-5° C95%9 km/h12 km/h23:52:10NW9 km/h
    22:55:00-5° C-6° C94%4 km/h7 km/h22:55:10N3 km/h
    21:55:00-5° C-6° C94%4 km/h9 km/h21:55:10NW3 km/h
    20:55:00-5° C-6° C94%5 km/h9 km/h20:55:10N5 km/h
    19:55:00-5° C-6° C94%7 km/h10 km/h19:53:10NE7 km/h
    18:55:00-4° C-5° C95%5 km/h11 km/h18:51:00NW4 km/h
    17:55:00-3° C-4° C96%11 km/h15 km/h17:53:10NW12 km/h
    16:55:00-3° C-4° C95%17 km/h28 km/h16:51:00W19 km/h
    15:55:00-2° C-3° C96%15 km/h20 km/h15:54:10NW14 km/h
    14:55:00-3° C-4° C96%14 km/h19 km/h14:52:10W16 km/h
    13:55:00-3° C-3° C96%16 km/h20 km/h13:51:00NW14 km/h
    12:55:00-3° C-3° C96%13 km/h18 km/h12:52:10W13 km/h
    11:55:00-3° C-4° C96%12 km/h19 km/h11:52:10W12 km/h
  • Time Avg. Air Temp Dew Point Avg. Rel Humidity Avg. 2 Min Wind Speed Max Gust Velocity MGV Time MGV Direction Avg. Spot Wind Velocity
    2017-04-28 10:55:00-3° C-4° C95%0 km/h0 km/h10:51:00N0 km/h
    10:50:00-3° C-4° C94%0 km/h0 km/h10:46:00N0 km/h
    10:45:00-4° C-4° C94%0 km/h0 km/h10:41:00N0 km/h
    10:40:00-3° C-4° C94%0 km/h0 km/h10:36:00N0 km/h
    10:35:00-3° C-4° C95%0 km/h0 km/h10:31:00N0 km/h
    10:30:00-3° C-4° C95%0 km/h0 km/h10:26:00N0 km/h
    10:25:00-4° C-5° C94%0 km/h0 km/h10:21:00N0 km/h
    10:20:00-4° C-5° C94%0 km/h0 km/h10:16:00N0 km/h
    10:15:00-4° C-5° C94%0 km/h0 km/h10:11:00N0 km/h
    10:10:00-5° C-5° C94%0 km/h0 km/h10:06:00N0 km/h
    10:05:00-5° C-6° C94%0 km/h0 km/h10:01:00N0 km/h
    10:00:00-5° C-6° C93%0 km/h0 km/h09:56:00N0 km/h
    09:55:00-5° C-6° C93%0 km/h0 km/h09:51:00N0 km/h